Date,TemperatureHighF,TemperatureAvgF,TemperatureLowF,DewpointHighF,DewpointAvgF,DewpointLowF,HumidityHigh,HumidityAvg,HumidityLow,PressureMaxIn,PressureMinIn,WindSpeedMaxMPH,WindSpeedAvgMPH,GustSpeedMaxMPH,PrecipitationSumIn
2013-2-1,34,20,14,28,9,2,90,61,45,30.45,29.89,31,8,31,0.00
2013-2-2,31,23,12,25,14,5,90,68,47,30.47,30.13,14,3,14,0.00
2013-2-3,34,29,26,28,23,18,92,78,70,30.13,29.95,25,8,29,0.01
2013-2-4,41,30,20,25,19,14,76,65,47,30.22,30.05,21,5,25,0.01
2013-2-5,46,40,34,35,30,23,79,69,53,30.05,29.98,21,6,21,0.00
2013-2-6,52,40,28,33,27,22,81,63,36,30.31,30.02,15,3,17,0.00
2013-2-7,35,32,28,32,29,22,95,88,74,30.36,30.12,11,2,13,0.14
2013-2-8,48,35,30,41,31,24,97,85,59,30.12,29.89,31,6,31,0.29
2013-2-9,45,33,24,24,17,10,78,55,26,30.40,30.08,29,7,34,0.29
2013-2-10,44,34,22,34,20,15,91,60,37,30.49,30.21,16,3,16,0.06
2013-2-11,59,50,36,50,42,32,99,76,49,30.21,29.93,27,7,27,0.08
2013-2-12,51,42,35,33,23,19,73,48,28,30.08,27.34,23,6,27,0.00
2013-2-13,41,37,33,38,34,28,95,88,73,29.96,29.64,23,4,25,0.03
2013-2-14,49,37,28,29,25,21,86,65,33,30.03,29.83,18,4,18,0.03
2013-2-15,51,39,32,36,31,26,95,73,45,30.07,29.94,23,4,23,0.02
2013-2-16,32,27,20,29,19,12,88,72,55,29.99,29.83,25,6,25,0.02
2013-2-17,24,19,13,15,7,4,86,59,42,30.16,29.87,36,9,36,0.00
2013-2-18,47,34,19,24,16,5,61,49,36,30.28,30.11,15,4,18,0.00
2013-2-19,46,39,31,38,26,11,89,61,33,30.12,29.82,32,8,32,0.02
2013-2-20,40,31,25,14,9,4,58,42,23,30.11,29.93,28,9,31,0.00
2013-2-21,48,34,22,18,13,10,63,44,22,30.23,30.07,20,6,20,0.00
2013-2-22,37,29,26,29,27,15,96,91,40,30.27,30.07,13,3,14,0.10
2013-2-23,51,38,30,45,36,28,97,92,78,30.10,29.85,7,1,8,0.15
2013-2-24,49,41,34,39,27,18,96,61,32,30.05,29.84,22,6,23,0.15
2013-2-25,36,30,26,25,22,20,81,70,57,30.15,30.04,13,2,13,0.00
2013-2-26,36,32,27,34,28,20,95,87,67,30.11,29.62,18,3,24,1.13
2013-2-27,45,38,32,34,32,29,100,79,62,29.79,29.63,18,5,19,1.13
2013-2-28,35,32,30,29,26,23,90,79,63,29.84,29.71,23,6,23,0.00